sensor_id;sensor_type;location;lat;lon;timestamp;pressure;altitude;pressure_sealevel;temperature;humidity
45813;BME280;31519;45.408;10.962;2023-05-11T00:01:58;100215.22;;;17.10;100.00
45813;BME280;31519;45.408;10.962;2023-05-11T00:04:28;100223.13;;;17.18;100.00
45813;BME280;31519;45.408;10.962;2023-05-11T00:06:56;100220.06;;;17.20;100.00
45813;BME280;31519;45.408;10.962;2023-05-11T00:09:24;100222.09;;;16.88;100.00
45813;BME280;31519;45.408;10.962;2023-05-11T00:11:52;100222.44;;;17.06;100.00
45813;BME280;31519;45.408;10.962;2023-05-11T00:14:20;100217.19;;;16.74;99.46
45813;BME280;31519;45.408;10.962;2023-05-11T00:16:49;100221.94;;;16.81;96.07
45813;BME280;31519;45.408;10.962;2023-05-11T00:19:17;100218.56;;;16.84;100.00
45813;BME280;31519;45.408;10.962;2023-05-11T00:21:45;100216.31;;;16.55;100.00
45813;BME280;31519;45.408;10.962;2023-05-11T00:24:13;100209.25;;;16.47;100.00
45813;BME280;31519;45.408;10.962;2023-05-11T00:26:41;100207.38;;;16.31;100.00
45813;BME280;31519;45.408;10.962;2023-05-11T00:29:09;100204.13;;;16.41;100.00
45813;BME280;31519;45.408;10.962;2023-05-11T00:31:38;100203.44;;;16.60;100.00
45813;BME280;31519;45.408;10.962;2023-05-11T00:34:05;100201.59;;;16.64;100.00
45813;BME280;31519;45.408;10.962;2023-05-11T00:36:34;100196.13;;;16.61;100.00
45813;BME280;31519;45.408;10.962;2023-05-11T00:39:02;100198.56;;;16.50;100.00
45813;BME280;31519;45.408;10.962;2023-05-11T00:41:31;100193.03;;;16.59;100.00
45813;BME280;31519;45.408;10.962;2023-05-11T00:43:59;100183.59;;;16.49;100.00
45813;BME280;31519;45.408;10.962;2023-05-11T00:46:27;100187.72;;;16.47;100.00
45813;BME280;31519;45.408;10.962;2023-05-11T00:48:55;100191.53;;;16.61;98.21
45813;BME280;31519;45.408;10.962;2023-05-11T00:51:23;100193.53;;;16.64;100.00
45813;BME280;31519;45.408;10.962;2023-05-11T00:53:51;100192.16;;;16.90;100.00
45813;BME280;31519;45.408;10.962;2023-05-11T00:56:20;100191.94;;;16.98;100.00
45813;BME280;31519;45.408;10.962;2023-05-11T00:58:48;100194.00;;;16.86;100.00
45813;BME280;31519;45.408;10.962;2023-05-11T01:01:16;100193.56;;;16.83;100.00
45813;BME280;31519;45.408;10.962;2023-05-11T01:03:46;100190.31;;;16.94;100.00
45813;BME280;31519;45.408;10.962;2023-05-11T01:08:49;100196.78;;;16.73;100.00
45813;BME280;31519;45.408;10.962;2023-05-11T01:11:29;100184.63;;;16.79;99.08
45813;BME280;31519;45.408;10.962;2023-05-11T01:14:11;100189.53;;;16.93;95.83
45813;BME280;31519;45.408;10.962;2023-05-11T01:16:43;100190.22;;;16.71;97.62
45813;BME280;31519;45.408;10.962;2023-05-11T01:21:54;100196.38;;;16.56;100.00
45813;BME280;31519;45.408;10.962;2023-05-11T01:27:22;100197.22;;;16.75;100.00
45813;BME280;31519;45.408;10.962;2023-05-11T01:33:05;100187.97;;;16.57;100.00
45813;BME280;31519;45.408;10.962;2023-05-11T01:35:37;100191.78;;;16.56;100.00
45813;BME280;31519;45.408;10.962;2023-05-11T01:38:09;100193.19;;;16.50;100.00
45813;BME280;31519;45.408;10.962;2023-05-11T01:40:40;100191.94;;;16.28;100.00
45813;BME280;31519;45.408;10.962;2023-05-11T01:43:16;100190.00;;;16.45;100.00
45813;BME280;31519;45.408;10.962;2023-05-11T01:45:50;100182.06;;;16.17;100.00
45813;BME280;31519;45.408;10.962;2023-05-11T01:48:22;100181.50;;;16.27;100.00
45813;BME280;31519;45.408;10.962;2023-05-11T01:50:55;100181.25;;;16.32;100.00
45813;BME280;31519;45.408;10.962;2023-05-11T01:53:31;100189.28;;;16.13;100.00
45813;BME280;31519;45.408;10.962;2023-05-11T01:56:01;100184.94;;;16.08;100.00
45813;BME280;31519;45.408;10.962;2023-05-11T01:58:30;100189.53;;;16.08;100.00
45813;BME280;31519;45.408;10.962;2023-05-11T02:01:00;100187.00;;;16.30;100.00
45813;BME280;31519;45.408;10.962;2023-05-11T02:03:31;100190.66;;;16.57;100.00
45813;BME280;31519;45.408;10.962;2023-05-11T02:06:04;100183.41;;;16.42;100.00
45813;BME280;31519;45.408;10.962;2023-05-11T02:08:37;100196.31;;;16.36;100.00
45813;BME280;31519;45.408;10.962;2023-05-11T02:11:06;100190.50;;;16.66;100.00
45813;BME280;31519;45.408;10.962;2023-05-11T02:13:37;100181.75;;;16.37;100.00
45813;BME280;31519;45.408;10.962;2023-05-11T02:16:09;100179.94;;;16.41;100.00
45813;BME280;31519;45.408;10.962;2023-05-11T02:18:39;100183.63;;;16.02;100.00
45813;BME280;31519;45.408;10.962;2023-05-11T02:21:08;100173.31;;;15.88;100.00
45813;BME280;31519;45.408;10.962;2023-05-11T02:23:39;100181.97;;;16.13;100.00
45813;BME280;31519;45.408;10.962;2023-05-11T02:26:09;100189.97;;;16.60;100.00
45813;BME280;31519;45.408;10.962;2023-05-11T02:28:39;100185.63;;;16.56;100.00
45813;BME280;31519;45.408;10.962;2023-05-11T02:31:24;100192.88;;;16.36;100.00
45813;BME280;31519;45.408;10.962;2023-05-11T02:34:05;100188.50;;;16.12;100.00
45813;BME280;31519;45.408;10.962;2023-05-11T02:36:37;100193.16;;;16.00;100.00
45813;BME280;31519;45.408;10.962;2023-05-11T02:39:10;100190.84;;;15.98;100.00
45813;BME280;31519;45.408;10.962;2023-05-11T02:41:42;100185.88;;;16.16;100.00
45813;BME280;31519;45.408;10.962;2023-05-11T02:44:14;100174.59;;;16.10;100.00
45813;BME280;31519;45.408;10.962;2023-05-11T02:46:46;100177.47;;;16.02;100.00
45813;BME280;31519;45.408;10.962;2023-05-11T02:49:17;100171.81;;;16.22;100.00
45813;BME280;31519;45.408;10.962;2023-05-11T02:51:49;100172.38;;;16.12;100.00
45813;BME280;31519;45.408;10.962;2023-05-11T02:54:20;100163.19;;;15.98;100.00
45813;BME280;31519;45.408;10.962;2023-05-11T02:56:52;100166.56;;;15.94;100.00
45813;BME280;31519;45.408;10.962;2023-05-11T02:59:23;100159.69;;;16.28;100.00
45813;BME280;31519;45.408;10.962;2023-05-11T03:01:53;100159.63;;;16.09;100.00
45813;BME280;31519;45.408;10.962;2023-05-11T03:04:21;100151.31;;;15.99;100.00
45813;BME280;31519;45.408;10.962;2023-05-11T03:06:51;100164.78;;;16.33;100.00
45813;BME280;31519;45.408;10.962;2023-05-11T03:09:19;100162.34;;;16.44;100.00
45813;BME280;31519;45.408;10.962;2023-05-11T03:11:49;100165.22;;;16.35;100.00
45813;BME280;31519;45.408;10.962;2023-05-11T03:14:18;100160.00;;;16.42;100.00
45813;BME280;31519;45.408;10.962;2023-05-11T03:16:47;100162.06;;;16.49;100.00
45813;BME280;31519;45.408;10.962;2023-05-11T03:19:16;100164.38;;;16.66;100.00
45813;BME280;31519;45.408;10.962;2023-05-11T03:21:45;100155.53;;;16.50;100.00
45813;BME280;31519;45.408;10.962;2023-05-11T03:24:15;100163.13;;;16.45;100.00
45813;BME280;31519;45.408;10.962;2023-05-11T03:26:43;100155.41;;;16.59;100.00
45813;BME280;31519;45.408;10.962;2023-05-11T03:29:14;100160.06;;;16.62;100.00
45813;BME280;31519;45.408;10.962;2023-05-11T03:31:43;100159.13;;;16.54;100.00
45813;BME280;31519;45.408;10.962;2023-05-11T03:34:12;100146.84;;;16.57;100.00
45813;BME280;31519;45.408;10.962;2023-05-11T03:36:44;100150.09;;;16.47;100.00
45813;BME280;31519;45.408;10.962;2023-05-11T03:39:15;100144.16;;;16.57;100.00
45813;BME280;31519;45.408;10.962;2023-05-11T03:41:45;100144.09;;;16.53;100.00
45813;BME280;31519;45.408;10.962;2023-05-11T03:44:18;100143.41;;;16.21;100.00
45813;BME280;31519;45.408;10.962;2023-05-11T03:46:51;100146.94;;;16.25;100.00
45813;BME280;31519;45.408;10.962;2023-05-11T03:49:20;100149.75;;;15.98;100.00
45813;BME280;31519;45.408;10.962;2023-05-11T03:51:49;100138.81;;;15.90;100.00
45813;BME280;31519;45.408;10.962;2023-05-11T03:54:17;100140.91;;;16.13;100.00
45813;BME280;31519;45.408;10.962;2023-05-11T03:56:46;100139.88;;;16.02;100.00
45813;BME280;31519;45.408;10.962;2023-05-11T03:59:15;100142.22;;;16.03;100.00
45813;BME280;31519;45.408;10.962;2023-05-11T04:01:43;100142.25;;;15.72;100.00
45813;BME280;31519;45.408;10.962;2023-05-11T04:04:12;100141.34;;;15.52;100.00
45813;BME280;31519;45.408;10.962;2023-05-11T04:06:40;100133.75;;;15.85;100.00
45813;BME280;31519;45.408;10.962;2023-05-11T04:09:13;100131.91;;;15.74;100.00
45813;BME280;31519;45.408;10.962;2023-05-11T04:11:41;100141.75;;;15.38;100.00
45813;BME280;31519;45.408;10.962;2023-05-11T04:14:09;100137.41;;;15.34;100.00
45813;BME280;31519;45.408;10.962;2023-05-11T04:16:37;100137.00;;;15.47;100.00
45813;BME280;31519;45.408;10.962;2023-05-11T04:19:06;100141.91;;;15.45;100.00
45813;BME280;31519;45.408;10.962;2023-05-11T04:21:34;100136.69;;;15.65;100.00
45813;BME280;31519;45.408;10.962;2023-05-11T04:24:03;100139.81;;;15.67;100.00
45813;BME280;31519;45.408;10.962;2023-05-11T04:26:31;100142.53;;;15.39;100.00
45813;BME280;31519;45.408;10.962;2023-05-11T04:28:59;100137.22;;;15.70;100.00
45813;BME280;31519;45.408;10.962;2023-05-11T04:31:27;100142.56;;;15.70;100.00
45813;BME280;31519;45.408;10.962;2023-05-11T04:33:59;100141.78;;;15.70;100.00
45813;BME280;31519;45.408;10.962;2023-05-11T04:36:27;100127.16;;;15.99;100.00
45813;BME280;31519;45.408;10.962;2023-05-11T04:38:55;100141.97;;;15.92;100.00
45813;BME280;31519;45.408;10.962;2023-05-11T04:41:23;100139.34;;;15.96;100.00
45813;BME280;31519;45.408;10.962;2023-05-11T04:43:53;100141.34;;;15.99;100.00
45813;BME280;31519;45.408;10.962;2023-05-11T04:46:21;100146.09;;;16.06;100.00
45813;BME280;31519;45.408;10.962;2023-05-11T04:48:51;100142.25;;;16.22;100.00
45813;BME280;31519;45.408;10.962;2023-05-11T04:51:44;100145.84;;;16.11;100.00
45813;BME280;31519;45.408;10.962;2023-05-11T04:54:14;100153.81;;;16.07;100.00
45813;BME280;31519;45.408;10.962;2023-05-11T04:56:44;100155.88;;;16.29;100.00
45813;BME280;31519;45.408;10.962;2023-05-11T04:59:13;100147.09;;;16.32;100.00
45813;BME280;31519;45.408;10.962;2023-05-11T05:01:41;100153.63;;;16.51;100.00
45813;BME280;31519;45.408;10.962;2023-05-11T05:04:10;100152.78;;;16.47;100.00
45813;BME280;31519;45.408;10.962;2023-05-11T05:06:38;100156.53;;;16.42;100.00
45813;BME280;31519;45.408;10.962;2023-05-11T05:09:06;100162.53;;;16.35;100.00
45813;BME280;31519;45.408;10.962;2023-05-11T05:11:35;100159.00;;;16.51;100.00
45813;BME280;31519;45.408;10.962;2023-05-11T05:14:03;100154.16;;;16.56;100.00
45813;BME280;31519;45.408;10.962;2023-05-11T05:16:31;100162.69;;;16.58;100.00
45813;BME280;31519;45.408;10.962;2023-05-11T05:18:59;100165.53;;;16.50;100.00
45813;BME280;31519;45.408;10.962;2023-05-11T05:21:30;100161.91;;;16.58;100.00
45813;BME280;31519;45.408;10.962;2023-05-11T05:23:59;100163.53;;;16.62;100.00
45813;BME280;31519;45.408;10.962;2023-05-11T05:26:27;100165.06;;;16.28;100.00
45813;BME280;31519;45.408;10.962;2023-05-11T05:28:56;100168.66;;;16.52;100.00
45813;BME280;31519;45.408;10.962;2023-05-11T05:31:24;100171.97;;;16.80;100.00
45813;BME280;31519;45.408;10.962;2023-05-11T05:33:53;100168.19;;;16.30;100.00
45813;BME280;31519;45.408;10.962;2023-05-11T05:36:21;100164.84;;;16.37;100.00
45813;BME280;31519;45.408;10.962;2023-05-11T05:38:49;100172.38;;;16.63;100.00
45813;BME280;31519;45.408;10.962;2023-05-11T05:41:18;100169.50;;;16.21;100.00
45813;BME280;31519;45.408;10.962;2023-05-11T05:43:46;100167.84;;;16.01;100.00
45813;BME280;31519;45.408;10.962;2023-05-11T05:46:16;100166.84;;;15.89;100.00
45813;BME280;31519;45.408;10.962;2023-05-11T05:48:46;100159.22;;;15.76;100.00
45813;BME280;31519;45.408;10.962;2023-05-11T05:51:14;100170.44;;;15.81;100.00
45813;BME280;31519;45.408;10.962;2023-05-11T05:53:43;100164.59;;;15.76;100.00
45813;BME280;31519;45.408;10.962;2023-05-11T05:56:11;100172.53;;;15.57;100.00
45813;BME280;31519;45.408;10.962;2023-05-11T05:58:39;100168.19;;;15.52;100.00
45813;BME280;31519;45.408;10.962;2023-05-11T06:01:08;100168.47;;;15.63;100.00
45813;BME280;31519;45.408;10.962;2023-05-11T06:03:36;100173.56;;;15.68;100.00
45813;BME280;31519;45.408;10.962;2023-05-11T06:06:06;100170.63;;;15.57;100.00
45813;BME280;31519;45.408;10.962;2023-05-11T06:08:34;100169.00;;;15.84;100.00
45813;BME280;31519;45.408;10.962;2023-05-11T06:11:02;100170.78;;;15.64;100.00
45813;BME280;31519;45.408;10.962;2023-05-11T06:13:31;100169.59;;;15.77;100.00
45813;BME280;31519;45.408;10.962;2023-05-11T06:16:00;100169.13;;;15.44;100.00
45813;BME280;31519;45.408;10.962;2023-05-11T06:18:32;100165.84;;;15.23;100.00
45813;BME280;31519;45.408;10.962;2023-05-11T06:21:02;100167.34;;;15.36;100.00
45813;BME280;31519;45.408;10.962;2023-05-11T06:23:32;100165.28;;;15.29;100.00
45813;BME280;31519;45.408;10.962;2023-05-11T06:26:00;100167.50;;;15.27;100.00
45813;BME280;31519;45.408;10.962;2023-05-11T06:28:31;100165.84;;;15.50;100.00
45813;BME280;31519;45.408;10.962;2023-05-11T06:31:03;100161.25;;;15.23;100.00
45813;BME280;31519;45.408;10.962;2023-05-11T06:33:34;100153.59;;;15.37;100.00
45813;BME280;31519;45.408;10.962;2023-05-11T06:36:06;100161.56;;;15.49;100.00
45813;BME280;31519;45.408;10.962;2023-05-11T06:38:36;100159.41;;;15.39;100.00
45813;BME280;31519;45.408;10.962;2023-05-11T06:41:04;100162.41;;;15.97;100.00
45813;BME280;31519;45.408;10.962;2023-05-11T06:43:33;100167.06;;;16.00;100.00
45813;BME280;31519;45.408;10.962;2023-05-11T06:46:03;100159.09;;;16.19;100.00
45813;BME280;31519;45.408;10.962;2023-05-11T06:48:32;100145.25;;;15.86;100.00
45813;BME280;31519;45.408;10.962;2023-05-11T06:51:00;100156.97;;;15.93;100.00
45813;BME280;31519;45.408;10.962;2023-05-11T06:53:28;100154.88;;;16.03;100.00
45813;BME280;31519;45.408;10.962;2023-05-11T06:55:57;100164.84;;;16.02;100.00
45813;BME280;31519;45.408;10.962;2023-05-11T06:58:26;100160.78;;;16.27;100.00
45813;BME280;31519;45.408;10.962;2023-05-11T07:00:54;100169.41;;;16.17;100.00
45813;BME280;31519;45.408;10.962;2023-05-11T07:03:22;100175.00;;;16.44;100.00
45813;BME280;31519;45.408;10.962;2023-05-11T07:05:50;100171.94;;;16.61;100.00
45813;BME280;31519;45.408;10.962;2023-05-11T07:08:19;100174.78;;;16.87;100.00
45813;BME280;31519;45.408;10.962;2023-05-11T07:10:47;100171.72;;;16.69;100.00
45813;BME280;31519;45.408;10.962;2023-05-11T07:13:15;100168.22;;;16.84;100.00
45813;BME280;31519;45.408;10.962;2023-05-11T07:15:43;100174.94;;;16.40;97.07
45813;BME280;31519;45.408;10.962;2023-05-11T07:18:11;100177.50;;;16.36;98.62
45813;BME280;31519;45.408;10.962;2023-05-11T07:20:39;100176.38;;;16.37;100.00
45813;BME280;31519;45.408;10.962;2023-05-11T07:23:08;100182.28;;;16.59;100.00
45813;BME280;31519;45.408;10.962;2023-05-11T07:25:36;100175.34;;;16.42;100.00
45813;BME280;31519;45.408;10.962;2023-05-11T07:28:04;100185.16;;;16.19;98.85
45813;BME280;31519;45.408;10.962;2023-05-11T07:30:33;100182.16;;;16.20;100.00
45813;BME280;31519;45.408;10.962;2023-05-11T07:33:01;100186.41;;;16.21;95.69
45813;BME280;31519;45.408;10.962;2023-05-11T07:35:30;100186.00;;;16.54;97.42
45813;BME280;31519;45.408;10.962;2023-05-11T07:37:58;100183.34;;;16.73;99.38
45813;BME280;31519;45.408;10.962;2023-05-11T07:40:26;100187.47;;;17.06;100.00
45813;BME280;31519;45.408;10.962;2023-05-11T07:42:54;100188.75;;;16.93;100.00
45813;BME280;31519;45.408;10.962;2023-05-11T07:45:22;100190.94;;;16.87;100.00
45813;BME280;31519;45.408;10.962;2023-05-11T07:47:51;100192.34;;;17.00;100.00
45813;BME280;31519;45.408;10.962;2023-05-11T07:50:20;100184.16;;;16.93;100.00
45813;BME280;31519;45.408;10.962;2023-05-11T07:52:51;100185.66;;;16.91;98.91
45813;BME280;31519;45.408;10.962;2023-05-11T07:55:19;100195.03;;;16.62;100.00
45813;BME280;31519;45.408;10.962;2023-05-11T07:57:52;100187.06;;;16.84;98.99
45813;BME280;31519;45.408;10.962;2023-05-11T08:00:23;100189.09;;;16.72;99.79
45813;BME280;31519;45.408;10.962;2023-05-11T08:02:51;100190.81;;;16.99;98.25
45813;BME280;31519;45.408;10.962;2023-05-11T08:05:20;100193.97;;;16.51;98.47
45813;BME280;31519;45.408;10.962;2023-05-11T08:07:49;100192.13;;;16.70;96.75
45813;BME280;31519;45.408;10.962;2023-05-11T08:10:17;100193.91;;;16.82;97.85
45813;BME280;31519;45.408;10.962;2023-05-11T08:12:45;100196.19;;;16.80;100.00
45813;BME280;31519;45.408;10.962;2023-05-11T08:15:13;100197.75;;;16.81;99.18
45813;BME280;31519;45.408;10.962;2023-05-11T08:17:41;100188.81;;;16.77;100.00
45813;BME280;31519;45.408;10.962;2023-05-11T08:20:10;100195.19;;;17.07;98.96
45813;BME280;31519;45.408;10.962;2023-05-11T08:22:38;100206.81;;;17.11;98.92
45813;BME280;31519;45.408;10.962;2023-05-11T08:25:07;100195.81;;;17.01;98.07
45813;BME280;31519;45.408;10.962;2023-05-11T08:27:35;100197.63;;;16.42;99.47
45813;BME280;31519;45.408;10.962;2023-05-11T08:30:05;100194.47;;;16.56;100.00
45813;BME280;31519;45.408;10.962;2023-05-11T08:32:35;100193.91;;;16.82;100.00
45813;BME280;31519;45.408;10.962;2023-05-11T08:35:22;100197.84;;;16.69;100.00
45813;BME280;31519;45.408;10.962;2023-05-11T08:37:51;100200.97;;;16.71;100.00
45813;BME280;31519;45.408;10.962;2023-05-11T08:40:20;100201.13;;;16.27;100.00
45813;BME280;31519;45.408;10.962;2023-05-11T08:42:55;100193.56;;;16.49;100.00
45813;BME280;31519;45.408;10.962;2023-05-11T08:45:24;100190.19;;;16.36;100.00
45813;BME280;31519;45.408;10.962;2023-05-11T08:47:54;100196.78;;;16.73;100.00
45813;BME280;31519;45.408;10.962;2023-05-11T08:50:22;100190.47;;;16.31;100.00
45813;BME280;31519;45.408;10.962;2023-05-11T08:52:50;100194.22;;;16.61;100.00
45813;BME280;31519;45.408;10.962;2023-05-11T08:55:20;100198.88;;;16.80;100.00
45813;BME280;31519;45.408;10.962;2023-05-11T08:57:50;100194.28;;;16.80;100.00
45813;BME280;31519;45.408;10.962;2023-05-11T09:00:20;100203.78;;;16.59;100.00
45813;BME280;31519;45.408;10.962;2023-05-11T09:02:50;100200.84;;;16.83;100.00
45813;BME280;31519;45.408;10.962;2023-05-11T09:05:19;100210.16;;;16.70;100.00
45813;BME280;31519;45.408;10.962;2023-05-11T09:07:51;100209.56;;;16.96;100.00
45813;BME280;31519;45.408;10.962;2023-05-11T09:10:20;100212.25;;;16.76;100.00
45813;BME280;31519;45.408;10.962;2023-05-11T09:12:48;100204.38;;;16.68;100.00
45813;BME280;31519;45.408;10.962;2023-05-11T09:15:16;100197.09;;;16.53;100.00
45813;BME280;31519;45.408;10.962;2023-05-11T09:17:44;100201.88;;;16.44;100.00
45813;BME280;31519;45.408;10.962;2023-05-11T09:20:12;100204.66;;;16.47;100.00
45813;BME280;31519;45.408;10.962;2023-05-11T09:22:45;100195.06;;;16.15;100.00
45813;BME280;31519;45.408;10.962;2023-05-11T09:25:14;100200.25;;;16.39;100.00
45813;BME280;31519;45.408;10.962;2023-05-11T09:27:45;100202.41;;;16.33;100.00
45813;BME280;31519;45.408;10.962;2023-05-11T09:30:19;100189.41;;;16.35;100.00
45813;BME280;31519;45.408;10.962;2023-05-11T09:32:53;100194.97;;;16.11;100.00
45813;BME280;31519;45.408;10.962;2023-05-11T09:35:25;100191.78;;;16.56;100.00
45813;BME280;31519;45.408;10.962;2023-05-11T09:38:07;100189.72;;;16.65;100.00
45813;BME280;31519;45.408;10.962;2023-05-11T09:40:53;100196.72;;;16.70;100.00
45813;BME280;31519;45.408;10.962;2023-05-11T09:43:27;100193.78;;;16.94;100.00
45813;BME280;31519;45.408;10.962;2023-05-11T09:45:58;100187.94;;;16.38;100.00
45813;BME280;31519;45.408;10.962;2023-05-11T09:48:34;100193.59;;;16.17;100.00
45813;BME280;31519;45.408;10.962;2023-05-11T09:51:04;100195.06;;;16.81;100.00
45813;BME280;31519;45.408;10.962;2023-05-11T09:53:35;100197.22;;;16.25;100.00
45813;BME280;31519;45.408;10.962;2023-05-11T09:56:04;100197.78;;;16.65;100.00
45813;BME280;31519;45.408;10.962;2023-05-11T09:58:51;100189.41;;;16.35;100.00
45813;BME280;31519;45.408;10.962;2023-05-11T10:01:29;100187.50;;;16.36;100.00
45813;BME280;31519;45.408;10.962;2023-05-11T10:03:59;100189.16;;;16.75;100.00
45813;BME280;31519;45.408;10.962;2023-05-11T10:06:50;100191.91;;;16.44;100.00
45813;BME280;31519;45.408;10.962;2023-05-11T10:09:23;100192.88;;;16.36;100.00
45813;BME280;31519;45.408;10.962;2023-05-11T10:11:52;100200.88;;;16.17;100.00
45813;BME280;31519;45.408;10.962;2023-05-11T10:14:23;100190.91;;;16.17;100.00
45813;BME280;31519;45.408;10.962;2023-05-11T10:16:51;100194.34;;;16.33;100.00
45813;BME280;31519;45.408;10.962;2023-05-11T10:19:20;100196.09;;;16.26;100.00
45813;BME280;31519;45.408;10.962;2023-05-11T10:21:50;100189.66;;;16.81;100.00
45813;BME280;31519;45.408;10.962;2023-05-11T10:24:19;100195.97;;;17.08;100.00
45813;BME280;31519;45.408;10.962;2023-05-11T10:26:48;100182.00;;;16.48;100.00
45813;BME280;31519;45.408;10.962;2023-05-11T10:29:18;100194.56;;;16.60;100.00
45813;BME280;31519;45.408;10.962;2023-05-11T10:31:47;100194.09;;;16.23;100.00
45813;BME280;31519;45.408;10.962;2023-05-11T10:34:16;100199.97;;;16.44;100.00
45813;BME280;31519;45.408;10.962;2023-05-11T10:36:45;100194.19;;;16.26;100.00
45813;BME280;31519;45.408;10.962;2023-05-11T10:39:13;100195.44;;;16.64;100.00
45813;BME280;31519;45.408;10.962;2023-05-11T10:41:56;100191.06;;;16.40;100.00
45813;BME280;31519;45.408;10.962;2023-05-11T10:58:44;100184.06;;;16.70;100.00
45813;BME280;31519;45.408;10.962;2023-05-11T11:04:01;100180.78;;;16.46;100.00
45813;BME280;31519;45.408;10.962;2023-05-11T11:06:34;100173.78;;;16.41;100.00
45813;BME280;31519;45.408;10.962;2023-05-11T11:09:23;100175.72;;;16.95;100.00
45813;BME280;31519;45.408;10.962;2023-05-11T11:12:07;100184.19;;;17.35;100.00
45813;BME280;31519;45.408;10.962;2023-05-11T11:15:02;100179.03;;;16.88;100.00
45813;BME280;31519;45.408;10.962;2023-05-11T11:17:34;100183.91;;;16.82;100.00
45813;BME280;31519;45.408;10.962;2023-05-11T11:20:06;100178.88;;;16.62;100.00
45813;BME280;31519;45.408;10.962;2023-05-11T11:25:09;100186.41;;;16.91;100.00
45813;BME280;31519;45.408;10.962;2023-05-11T11:30:22;100178.28;;;17.07;100.00
45813;BME280;31519;45.408;10.962;2023-05-11T11:32:54;100180.81;;;16.80;100.00
45813;BME280;31519;45.408;10.962;2023-05-11T11:38:19;100178.91;;;17.00;100.00
45813;BME280;31519;45.408;10.962;2023-05-11T11:40:49;100180.47;;;17.01;100.00
45813;BME280;31519;45.408;10.962;2023-05-11T11:43:21;100184.69;;;16.83;100.00
45813;BME280;31519;45.408;10.962;2023-05-11T11:46:00;100181.59;;;17.00;100.00
45813;BME280;31519;45.408;10.962;2023-05-11T11:48:36;100184.94;;;16.94;100.00
45813;BME280;31519;45.408;10.962;2023-05-11T11:51:09;100186.41;;;16.91;100.00
45813;BME280;31519;45.408;10.962;2023-05-11T12:01:17;100184.44;;;17.26;100.00
45813;BME280;31519;45.408;10.962;2023-05-11T12:04:27;100180.44;;;17.59;100.00
45813;BME280;31519;45.408;10.962;2023-05-11T12:07:06;100178.88;;;17.39;98.68
45813;BME280;31519;45.408;10.962;2023-05-11T12:09:37;100184.38;;;17.65;95.42
45813;BME280;31519;45.408;10.962;2023-05-11T12:12:06;100185.03;;;17.58;95.57
45813;BME280;31519;45.408;10.962;2023-05-11T12:14:35;100188.19;;;17.22;96.95
45813;BME280;31519;45.408;10.962;2023-05-11T12:17:07;100178.63;;;17.89;96.68
45813;BME280;31519;45.408;10.962;2023-05-11T12:19:44;100178.44;;;17.79;97.76
45813;BME280;31519;45.408;10.962;2023-05-11T12:22:13;100182.59;;;17.95;95.79
45813;BME280;31519;45.408;10.962;2023-05-11T12:24:43;100184.38;;;17.88;97.98
45813;BME280;31519;45.408;10.962;2023-05-11T12:27:11;100182.94;;;17.71;96.95
45813;BME280;31519;45.408;10.962;2023-05-11T12:29:40;100173.69;;;17.68;98.66
45813;BME280;31519;45.408;10.962;2023-05-11T12:32:10;100170.22;;;17.49;99.28
45813;BME280;31519;45.408;10.962;2023-05-11T12:34:40;100167.50;;;17.68;96.41
45813;BME280;31519;45.408;10.962;2023-05-11T12:37:08;100167.91;;;17.93;97.43
45813;BME280;31519;45.408;10.962;2023-05-11T12:39:36;100166.31;;;17.46;97.65
45813;BME280;31519;45.408;10.962;2023-05-11T12:42:04;100158.47;;;17.80;97.83
45813;BME280;31519;45.408;10.962;2023-05-11T12:44:33;100166.19;;;17.81;96.59
45813;BME280;31519;45.408;10.962;2023-05-11T12:47:01;100161.13;;;18.29;94.80
45813;BME280;31519;45.408;10.962;2023-05-11T12:49:30;100152.66;;;18.00;96.58
45813;BME280;31519;45.408;10.962;2023-05-11T12:54:36;100148.50;;;18.59;92.38
45813;BME280;31519;45.408;10.962;2023-05-11T12:57:07;100144.13;;;18.51;90.98
45813;BME280;31519;45.408;10.962;2023-05-11T12:59:38;100158.22;;;18.67;92.39
45813;BME280;31519;45.408;10.962;2023-05-11T13:02:18;100146.44;;;18.23;92.47
45813;BME280;31519;45.408;10.962;2023-05-11T13:04:47;100152.56;;;18.49;92.89
45813;BME280;31519;45.408;10.962;2023-05-11T13:07:27;100149.50;;;18.77;90.20
45813;BME280;31519;45.408;10.962;2023-05-11T13:09:56;100148.97;;;19.35;88.46
45813;BME280;31519;45.408;10.962;2023-05-11T13:12:25;100149.16;;;19.49;84.25
45813;BME280;31519;45.408;10.962;2023-05-11T13:15:10;100145.84;;;19.29;83.14
45813;BME280;31519;45.408;10.962;2023-05-11T13:17:41;100140.69;;;19.51;83.92
45813;BME280;31519;45.408;10.962;2023-05-11T13:20:21;100142.88;;;19.82;81.90
45813;BME280;31519;45.408;10.962;2023-05-11T13:23:13;100136.00;;;19.91;79.96
45813;BME280;31519;45.408;10.962;2023-05-11T13:28:19;100137.75;;;19.29;82.59
45813;BME280;31519;45.408;10.962;2023-05-11T13:30:49;100142.22;;;19.15;82.95
45813;BME280;31519;45.408;10.962;2023-05-11T13:33:18;100133.38;;;19.18;82.75
45813;BME280;31519;45.408;10.962;2023-05-11T13:35:46;100146.75;;;18.74;84.37
45813;BME280;31519;45.408;10.962;2023-05-11T13:38:14;100142.84;;;18.15;87.87
45813;BME280;31519;45.408;10.962;2023-05-11T13:40:43;100151.66;;;18.12;86.37